createdAt,value
2023-02-05T00:03:14.231Z,19.70
2023-02-05T00:08:19.457Z,19.60
2023-02-05T00:13:24.823Z,19.60
2023-02-05T00:18:30.276Z,19.70
2023-02-05T00:23:36.881Z,19.70
2023-02-05T00:28:42.835Z,19.70
2023-02-05T00:33:49.054Z,19.70
2023-02-05T00:38:54.607Z,19.70
2023-02-05T00:44:00.313Z,19.70
2023-02-05T00:49:06.012Z,19.80
2023-02-05T00:54:11.914Z,19.90
2023-02-05T00:59:26.771Z,19.90
2023-02-05T01:10:10.445Z,19.90
2023-02-05T01:15:16.563Z,19.90
2023-02-05T01:20:23.421Z,19.90
2023-02-05T01:25:29.400Z,19.80
2023-02-05T01:30:34.651Z,19.80
2023-02-05T01:35:40.123Z,19.70
2023-02-05T01:40:47.801Z,19.70
2023-02-05T01:46:28.922Z,19.70
2023-02-05T01:51:38.332Z,19.80
2023-02-05T01:56:48.069Z,19.90
2023-02-05T02:01:54.896Z,20.00
2023-02-05T02:07:04.617Z,20.00
2023-02-05T02:12:18.497Z,20.00
2023-02-05T02:17:30.912Z,19.90
2023-02-05T02:23:24.847Z,19.90
2023-02-05T02:29:06.136Z,20.00
2023-02-05T02:34:28.950Z,20.20
2023-02-05T02:40:33.209Z,20.20
2023-02-05T02:45:49.370Z,20.00
2023-02-05T02:50:58.329Z,19.80
2023-02-05T02:56:06.327Z,20.00
2023-02-05T03:01:14.909Z,19.90
2023-02-05T03:06:22.878Z,19.80
2023-02-05T03:11:30.259Z,19.80
2023-02-05T03:16:37.047Z,19.80
2023-02-05T03:21:49.655Z,19.80
2023-02-05T03:26:56.263Z,19.90
2023-02-05T03:32:45.079Z,20.00
2023-02-05T04:01:38.061Z,21.10
2023-02-05T04:06:47.660Z,21.70
2023-02-05T04:11:55.517Z,22.70
2023-02-05T04:17:02.795Z,22.70
2023-02-05T04:22:09.255Z,22.40
2023-02-05T04:27:27.030Z,22.10
2023-02-05T04:32:43.136Z,21.80
2023-02-05T04:44:10.056Z,21.40
2023-02-05T04:44:54.507Z,21.20
2023-02-05T04:50:01.868Z,21.00
2023-02-05T04:55:13.159Z,21.00
2023-02-05T05:00:26.963Z,21.30
2023-02-05T05:05:36.784Z,22.10
2023-02-05T05:10:48.143Z,22.50
2023-02-05T05:16:00.500Z,23.30
2023-02-05T05:21:16.168Z,24.50
2023-02-05T05:26:51.757Z,25.40
2023-02-05T05:37:46.915Z,24.50
2023-02-05T05:43:23.167Z,24.50
2023-02-05T05:48:30.283Z,25.30
2023-02-05T05:53:42.259Z,28.40
2023-02-05T05:58:55.484Z,30.50
2023-02-05T06:04:04.650Z,28.30
2023-02-05T06:09:15.892Z,26.60
2023-02-05T06:14:25.880Z,26.00
2023-02-05T06:19:48.210Z,25.80
2023-02-05T06:24:57.501Z,25.10
2023-02-05T06:30:16.685Z,24.50
2023-02-05T06:35:27.324Z,24.40
2023-02-05T06:46:30.414Z,24.00
2023-02-05T06:51:40.278Z,23.90
2023-02-05T06:56:56.482Z,23.70
2023-02-05T07:02:21.821Z,23.60
2023-02-05T07:13:23.743Z,23.40
2023-02-05T07:18:38.799Z,23.50
2023-02-05T07:23:48.678Z,24.00
2023-02-05T07:28:57.852Z,24.10
2023-02-05T07:34:03.580Z,24.20
2023-02-05T07:39:11.561Z,24.10
2023-02-05T07:44:19.992Z,24.00
2023-02-05T07:49:27.051Z,24.30
2023-02-05T07:54:32.619Z,24.70
2023-02-05T07:59:39.482Z,24.60
2023-02-05T08:04:48.556Z,24.30
2023-02-05T08:09:57.895Z,23.90
2023-02-05T08:15:06.097Z,23.60
2023-02-05T08:20:20.465Z,23.20
2023-02-05T08:25:30.036Z,23.20
2023-02-05T08:30:42.345Z,23.10
2023-02-05T08:35:54.611Z,23.30
2023-02-05T08:41:00.876Z,23.20
2023-02-05T08:46:17.485Z,23.20
2023-02-05T08:51:35.700Z,22.90
2023-02-05T08:56:47.167Z,22.70
2023-02-05T09:01:55.350Z,22.50
2023-02-05T09:07:01.148Z,22.30
2023-02-05T09:12:12.250Z,22.20
2023-02-05T09:17:21.442Z,22.00
2023-02-05T09:22:33.508Z,21.90
2023-02-05T09:27:43.307Z,21.90
2023-02-05T09:32:53.179Z,21.80
2023-02-05T09:38:07.214Z,21.80
2023-02-05T09:43:45.034Z,21.80
2023-02-05T09:49:20.313Z,21.80
2023-02-05T09:54:31.750Z,21.90
2023-02-05T09:59:38.070Z,21.70
2023-02-05T10:04:44.090Z,21.60
2023-02-05T10:10:30.952Z,21.50
2023-02-05T10:16:08.405Z,21.30
2023-02-05T10:21:54.724Z,21.20
2023-02-05T10:27:07.863Z,21.10
2023-02-05T10:32:51.905Z,21.00
2023-02-05T10:38:52.328Z,20.90
2023-02-05T10:44:19.664Z,20.80
2023-02-05T10:49:42.495Z,20.70
2023-02-05T10:54:49.310Z,20.60
2023-02-05T11:00:04.408Z,20.60
2023-02-05T11:05:50.299Z,20.60
2023-02-05T11:11:06.171Z,20.50
2023-02-05T11:16:12.665Z,20.40
2023-02-05T11:21:22.500Z,20.50
2023-02-05T11:26:33.989Z,20.40
2023-02-05T11:31:46.073Z,20.40
2023-02-05T11:36:56.059Z,20.40
2023-02-05T11:42:34.690Z,20.30
2023-02-05T11:47:46.081Z,20.30
2023-02-05T11:58:38.407Z,20.40
2023-02-05T12:04:09.824Z,20.40
2023-02-05T12:09:23.821Z,20.40
2023-02-05T12:14:37.441Z,20.40
2023-02-05T12:20:17.222Z,20.30
2023-02-05T12:25:42.749Z,20.30
2023-02-05T12:31:21.109Z,20.30
2023-02-05T12:36:48.164Z,20.30
2023-02-05T12:42:24.286Z,20.30
2023-02-05T12:47:57.210Z,20.20
2023-02-05T13:10:34.832Z,20.10
2023-02-05T13:16:09.424Z,20.10
2023-02-05T13:21:50.913Z,20.10
2023-02-05T13:27:20.623Z,20.10
2023-02-05T13:32:36.154Z,20.10
2023-02-05T13:38:41.332Z,20.10
2023-02-05T13:44:10.277Z,20.00
2023-02-05T13:49:24.565Z,20.10
2023-02-05T13:55:00.516Z,20.00
2023-02-05T14:00:25.802Z,20.00
2023-02-05T14:05:35.325Z,19.90
2023-02-05T14:10:49.556Z,20.00
2023-02-05T14:16:01.246Z,19.90
2023-02-05T14:21:33.364Z,20.00
2023-02-05T14:26:51.073Z,19.90
2023-02-05T14:32:04.300Z,19.90
2023-02-05T14:37:38.624Z,19.80
2023-02-05T14:42:57.110Z,19.90
2023-02-05T14:48:36.471Z,19.90
2023-02-05T14:54:08.567Z,20.00
2023-02-05T14:59:49.038Z,20.00
2023-02-05T15:05:01.246Z,20.00
2023-02-05T15:10:19.106Z,20.10
2023-02-05T15:15:46.736Z,20.10
2023-02-05T15:21:01.876Z,20.10
2023-02-05T15:26:25.423Z,20.00
2023-02-05T15:32:12.062Z,20.10
2023-02-05T15:37:38.354Z,20.10
2023-02-05T15:42:49.595Z,20.00
2023-02-05T15:48:12.870Z,20.00
2023-02-05T15:53:41.240Z,20.10
2023-02-05T15:59:02.495Z,20.00
2023-02-05T16:04:47.402Z,20.00
2023-02-05T16:09:57.787Z,20.00
2023-02-05T16:15:53.865Z,20.00
2023-02-05T16:21:03.713Z,20.00
2023-02-05T16:26:22.214Z,20.00
2023-02-05T16:31:29.692Z,20.00
2023-02-05T16:36:39.834Z,20.00
2023-02-05T16:42:03.486Z,20.00
2023-02-05T16:47:22.518Z,20.10
2023-02-05T16:52:32.339Z,20.00
2023-02-05T16:58:07.733Z,20.00
2023-02-05T17:03:21.393Z,20.00
2023-02-05T17:08:38.108Z,20.00
2023-02-05T17:13:45.922Z,20.00
2023-02-05T17:19:00.028Z,19.90
2023-02-05T17:24:10.630Z,19.90
2023-02-05T17:29:18.972Z,19.90
2023-02-05T17:34:24.344Z,19.90
2023-02-05T17:39:29.818Z,19.90
2023-02-05T17:44:35.947Z,20.00
2023-02-05T17:49:41.236Z,19.90
2023-02-05T17:54:47.751Z,19.90
2023-02-05T17:59:53.290Z,19.90
2023-02-05T18:04:58.436Z,19.90
2023-02-05T18:10:04.926Z,20.00
2023-02-05T18:15:11.016Z,19.90
2023-02-05T18:20:18.797Z,19.90
2023-02-05T18:25:24.120Z,20.00
2023-02-05T18:30:30.042Z,20.00
2023-02-05T18:35:35.791Z,20.00
2023-02-05T18:40:43.286Z,19.90
2023-02-05T18:45:48.712Z,20.00
2023-02-05T18:50:54.198Z,20.00
2023-02-05T18:56:26.715Z,20.00
2023-02-05T19:01:33.331Z,19.90
2023-02-05T19:06:38.748Z,19.90
2023-02-05T19:11:45.482Z,19.80
2023-02-05T19:16:52.192Z,19.90
2023-02-05T19:22:03.419Z,19.90
2023-02-05T19:27:09.250Z,19.90
2023-02-05T19:32:15.222Z,19.90
2023-02-05T19:37:20.490Z,19.80
2023-02-05T19:42:26.406Z,19.70
2023-02-05T19:47:31.617Z,19.70
2023-02-05T19:52:36.940Z,19.70
2023-02-05T19:57:42.289Z,19.70
2023-02-05T20:02:47.849Z,19.60
2023-02-05T20:07:54.236Z,19.70
2023-02-05T20:12:59.713Z,19.60
2023-02-05T20:18:05.145Z,19.70
2023-02-05T20:23:10.678Z,19.70
2023-02-05T20:28:16.231Z,19.70
2023-02-05T20:33:21.629Z,19.70
2023-02-05T20:38:27.157Z,19.70
2023-02-05T20:43:32.651Z,19.80
2023-02-05T20:48:38.362Z,19.70
2023-02-05T20:53:44.176Z,19.70
2023-02-05T20:58:49.840Z,19.70
2023-02-05T21:04:01.636Z,19.60
2023-02-05T21:09:08.974Z,19.70
2023-02-05T21:14:14.183Z,19.70
2023-02-05T21:19:20.490Z,19.70
2023-02-05T21:24:25.554Z,19.80
2023-02-05T21:29:31.087Z,19.90
2023-02-05T21:34:36.633Z,19.90
2023-02-05T21:39:42.453Z,19.90
2023-02-05T21:44:50.722Z,19.80
2023-02-05T21:49:56.041Z,19.70
2023-02-05T21:55:01.918Z,19.70
2023-02-05T22:00:07.793Z,19.70
2023-02-05T22:05:19.080Z,19.70
2023-02-05T22:10:25.426Z,19.70
2023-02-05T22:15:32.850Z,19.70
2023-02-05T22:20:38.234Z,19.70
2023-02-05T22:25:49.012Z,19.70
2023-02-05T22:31:00.126Z,19.60
2023-02-05T22:36:07.195Z,19.70
2023-02-05T22:41:18.186Z,19.60
2023-02-05T22:46:26.470Z,19.60
2023-02-05T22:51:35.694Z,19.60
2023-02-05T22:56:41.541Z,19.60
2023-02-05T23:01:47.330Z,19.40
2023-02-05T23:06:52.601Z,19.50
2023-02-05T23:11:58.182Z,19.40
2023-02-05T23:17:03.818Z,19.50
2023-02-05T23:22:11.781Z,19.40
2023-02-05T23:27:17.257Z,19.40
2023-02-05T23:32:22.513Z,19.50
2023-02-05T23:37:27.827Z,19.40
2023-02-05T23:42:33.641Z,19.30
2023-02-05T23:47:38.998Z,19.40
2023-02-05T23:52:44.520Z,19.30
2023-02-05T23:57:50.913Z,19.20
